createdAt,value
2023-05-01T00:00:24.651Z,0.0000
2023-05-01T00:01:26.473Z,0.0000
2023-05-01T00:02:28.390Z,0.0000
2023-05-01T00:03:30.556Z,0.0000
2023-05-01T00:04:30.544Z,0.0000
2023-05-01T00:05:32.420Z,0.0000
2023-05-01T00:06:34.322Z,0.0000
2023-05-01T00:07:36.210Z,0.0000
2023-05-01T00:08:38.090Z,0.0000
2023-05-01T00:09:39.878Z,0.0000
2023-05-01T00:10:41.764Z,0.0000
2023-05-01T00:11:43.620Z,0.0000
2023-05-01T00:12:45.468Z,0.0000
2023-05-01T00:13:47.339Z,0.0000
2023-05-01T00:14:49.188Z,0.0000
2023-05-01T00:15:51.049Z,0.0000
2023-05-01T00:16:53.005Z,0.0000
2023-05-01T00:17:55.198Z,0.0000
2023-05-01T00:18:57.031Z,0.0000
2023-05-01T00:19:59.254Z,0.0000
2023-05-01T00:21:01.454Z,0.0000
2023-05-01T00:22:03.278Z,0.0000
2023-05-01T00:23:05.172Z,0.0000
2023-05-01T00:24:07.086Z,0.0000
2023-05-01T00:25:08.794Z,0.0000
2023-05-01T00:26:10.636Z,0.0000
2023-05-01T00:27:12.368Z,0.0000
2023-05-01T00:28:14.171Z,0.0000
2023-05-01T00:29:16.014Z,0.0000
2023-05-01T00:30:17.868Z,0.0000
2023-05-01T00:31:19.658Z,0.0000
2023-05-01T00:32:21.670Z,0.0000
2023-05-01T00:33:23.533Z,0.0000
2023-05-01T00:34:25.366Z,0.0000
2023-05-01T00:35:27.188Z,0.0000
2023-05-01T00:36:28.958Z,0.0000
2023-05-01T00:37:30.859Z,0.0000
2023-05-01T00:38:32.760Z,0.0000
2023-05-01T00:39:34.735Z,0.0000
2023-05-01T00:40:36.610Z,0.0000
2023-05-01T00:41:38.515Z,0.0000
2023-05-01T00:42:40.426Z,0.0000
2023-05-01T00:43:42.297Z,0.0000
2023-05-01T00:44:44.258Z,0.0000
2023-05-01T00:45:46.251Z,0.0000
2023-05-01T00:46:48.297Z,0.0000
2023-05-01T00:47:50.303Z,0.0000
2023-05-01T00:48:52.287Z,0.0000
2023-05-01T00:49:54.552Z,0.0000
2023-05-01T00:50:54.611Z,0.0000
2023-05-01T00:51:56.476Z,0.0000
2023-05-01T00:52:58.427Z,0.0000
2023-05-01T00:54:00.455Z,0.0000
2023-05-01T00:55:02.364Z,0.0000
2023-05-01T00:56:04.374Z,0.0000
2023-05-01T00:57:06.235Z,0.0000
2023-05-01T00:58:08.133Z,0.0000
2023-05-01T00:59:10.012Z,0.0000
2023-05-01T01:00:11.958Z,0.0000
2023-05-01T01:01:13.847Z,0.0000
2023-05-01T01:02:15.808Z,0.0000
2023-05-01T01:03:17.785Z,0.0000
2023-05-01T01:04:19.661Z,0.0000
2023-05-01T01:05:21.711Z,0.0000
2023-05-01T01:06:23.680Z,0.0000
2023-05-01T01:07:25.543Z,0.0000
2023-05-01T01:08:27.500Z,0.0000
2023-05-01T01:09:29.393Z,0.0000
2023-05-01T01:10:31.309Z,0.0000
2023-05-01T01:11:33.254Z,0.0000
2023-05-01T01:12:35.203Z,0.0000
2023-05-01T01:13:37.073Z,0.0000
2023-05-01T01:14:38.954Z,0.0000
2023-05-01T01:15:40.896Z,0.0000
2023-05-01T01:16:42.906Z,0.0000
2023-05-01T01:17:44.874Z,0.0000
2023-05-01T01:18:46.987Z,0.0000
2023-05-01T01:19:48.904Z,0.0000
2023-05-01T01:20:50.957Z,0.0000
2023-05-01T01:21:53.122Z,0.0000
2023-05-01T01:22:55.127Z,0.0000
2023-05-01T01:23:57.027Z,0.0000
2023-05-01T01:24:58.957Z,0.0000
2023-05-01T01:26:00.921Z,0.0000
2023-05-01T01:27:02.885Z,0.0000
2023-05-01T01:28:04.806Z,0.0000
2023-05-01T01:29:06.772Z,0.0000
2023-05-01T01:30:08.701Z,0.0000
2023-05-01T01:31:10.604Z,0.0000
2023-05-01T01:32:12.687Z,0.0000
2023-05-01T01:33:14.612Z,0.0000
2023-05-01T01:34:16.508Z,0.0000
2023-05-01T01:35:18.320Z,0.0000
2023-05-01T01:36:20.309Z,0.0000
2023-05-01T01:37:22.271Z,0.0000
2023-05-01T01:38:24.120Z,0.0000
2023-05-01T01:39:26.050Z,0.0000
2023-05-01T01:40:28.030Z,0.0000
2023-05-01T01:41:30.192Z,0.0000
2023-05-01T01:42:32.203Z,0.0000
2023-05-01T01:43:34.231Z,0.0000
2023-05-01T01:44:36.174Z,0.0000
2023-05-01T01:45:36.441Z,0.0000
2023-05-01T01:46:38.466Z,0.0000
2023-05-01T01:47:40.672Z,0.0000
2023-05-01T01:48:41.304Z,0.0000
2023-05-01T01:49:43.252Z,0.0000
2023-05-01T01:50:45.237Z,0.0000
2023-05-01T01:51:47.249Z,0.0000
2023-05-01T01:52:49.186Z,0.0000
2023-05-01T01:53:50.984Z,0.0000
2023-05-01T01:54:52.814Z,0.0000
2023-05-01T01:55:54.886Z,0.0000
2023-05-01T01:56:56.953Z,0.0000
2023-05-01T01:57:58.970Z,0.0000
2023-05-01T01:59:01.046Z,0.0000
2023-05-01T02:00:03.069Z,0.0000
2023-05-01T02:01:05.002Z,0.0000
2023-05-01T02:02:07.149Z,0.0000
2023-05-01T02:03:09.292Z,0.0000
2023-05-01T02:04:11.486Z,0.0000
2023-05-01T02:05:13.580Z,0.0000
2023-05-01T02:06:15.507Z,0.0000
2023-05-01T02:07:17.652Z,0.0000
2023-05-01T02:08:19.745Z,0.0000
2023-05-01T02:09:21.839Z,0.0000
2023-05-01T02:10:23.817Z,0.0000
2023-05-01T02:11:25.806Z,0.0000
2023-05-01T02:12:27.880Z,0.0000
2023-05-01T02:13:30.037Z,0.0000
2023-05-01T02:14:32.060Z,0.0000
2023-05-01T02:15:34.032Z,0.0000
2023-05-01T02:16:36.148Z,0.0000
2023-05-01T02:17:38.182Z,0.0000
2023-05-01T02:18:40.185Z,0.0000
2023-05-01T02:19:42.178Z,0.0000
2023-05-01T02:20:44.094Z,0.0000
2023-05-01T02:21:46.057Z,0.0000
2023-05-01T02:22:47.960Z,0.0000
2023-05-01T02:23:49.986Z,0.0000
2023-05-01T02:24:52.089Z,0.0000
2023-05-01T02:25:54.108Z,0.0000
2023-05-01T02:26:56.184Z,0.0000
2023-05-01T02:27:58.129Z,0.0000
2023-05-01T02:29:00.017Z,0.0000
2023-05-01T02:30:02.144Z,0.0000
2023-05-01T02:31:04.081Z,0.0000
2023-05-01T02:32:06.130Z,0.0000
2023-05-01T02:33:08.290Z,0.0000
2023-05-01T02:34:10.379Z,0.0000
2023-05-01T02:35:12.358Z,0.0000
2023-05-01T02:36:14.343Z,0.0000
2023-05-01T02:37:16.324Z,0.0000
2023-05-01T02:38:18.181Z,0.0000
2023-05-01T02:39:20.035Z,0.0000
2023-05-01T02:40:21.900Z,0.0000
2023-05-01T02:41:23.652Z,0.0000
2023-05-01T02:42:25.582Z,0.0000
2023-05-01T02:43:27.385Z,0.0000
2023-05-01T02:44:29.211Z,0.0000
2023-05-01T02:45:31.099Z,0.0000
2023-05-01T02:46:33.044Z,0.0000
2023-05-01T02:47:35.138Z,0.0000
2023-05-01T02:48:37.132Z,0.0000
2023-05-01T02:49:38.982Z,0.0000
2023-05-01T02:50:40.848Z,0.0000
2023-05-01T02:51:42.861Z,0.0000
2023-05-01T02:52:44.695Z,0.0000
2023-05-01T02:53:46.636Z,0.0000
2023-05-01T02:54:48.585Z,0.0000
2023-05-01T02:55:50.541Z,0.0000
2023-05-01T02:56:52.622Z,0.0000
2023-05-01T02:57:54.632Z,0.0000
2023-05-01T02:58:56.611Z,0.0000
2023-05-01T02:59:58.590Z,0.0000
2023-05-01T03:01:00.608Z,0.0000
2023-05-01T03:02:02.442Z,0.0000
2023-05-01T03:03:04.532Z,0.0000
2023-05-01T03:04:06.507Z,0.0000
2023-05-01T03:05:08.529Z,0.0000
2023-05-01T03:06:10.626Z,0.0000
2023-05-01T03:07:12.638Z,0.0000
2023-05-01T03:08:14.688Z,0.0000
2023-05-01T03:09:17.087Z,0.0000
2023-05-01T03:10:19.249Z,0.0000
2023-05-01T03:11:21.339Z,0.0000
2023-05-01T03:12:23.396Z,0.0000
2023-05-01T03:13:25.386Z,0.0000
2023-05-01T03:14:27.703Z,0.0000
2023-05-01T03:15:29.643Z,0.0000
2023-05-01T03:16:32.070Z,0.0000
2023-05-01T03:17:34.614Z,0.0000
2023-05-01T03:18:36.770Z,0.0000
2023-05-01T03:19:38.730Z,0.0000
2023-05-01T03:20:40.976Z,0.0000
2023-05-01T03:21:43.069Z,0.0000
2023-05-01T03:22:45.139Z,0.0000
2023-05-01T03:23:47.214Z,0.0000
2023-05-01T03:24:49.277Z,0.0000
2023-05-01T03:25:51.366Z,0.0000
2023-05-01T03:26:53.353Z,0.0000
2023-05-01T03:27:55.567Z,0.0000
2023-05-01T03:28:57.539Z,0.0000
2023-05-01T03:29:59.574Z,0.0000
2023-05-01T03:31:01.598Z,0.0000
2023-05-01T03:32:03.583Z,0.0000
2023-05-01T03:33:05.522Z,0.0000
2023-05-01T03:34:07.446Z,0.0000
2023-05-01T03:35:09.688Z,0.0000
2023-05-01T03:36:11.725Z,0.0000
2023-05-01T03:37:14.001Z,0.0000
2023-05-01T03:38:16.046Z,0.0000
2023-05-01T03:39:18.256Z,0.0000
2023-05-01T03:40:20.348Z,0.0000
2023-05-01T03:41:20.799Z,0.0000
2023-05-01T03:42:22.801Z,0.0000
2023-05-01T03:43:24.795Z,0.0000
2023-05-01T03:44:26.875Z,0.0000
2023-05-01T03:45:29.015Z,0.0000
2023-05-01T03:46:31.159Z,0.0000
2023-05-01T03:47:33.357Z,0.0000
2023-05-01T03:48:35.431Z,0.0000
2023-05-01T03:49:37.467Z,0.0000
2023-05-01T03:50:39.546Z,0.0000
2023-05-01T03:51:41.632Z,0.0000
2023-05-01T03:52:43.659Z,0.0000
2023-05-01T03:53:45.914Z,0.0000
2023-05-01T03:54:48.108Z,0.0000
2023-05-01T03:55:50.335Z,0.0000
2023-05-01T03:56:52.464Z,0.0000
2023-05-01T03:57:54.419Z,0.0000
2023-05-01T03:58:56.499Z,0.0000
2023-05-01T03:59:58.861Z,0.0000
2023-05-01T04:01:01.174Z,0.0000
2023-05-01T04:02:03.334Z,0.0000
2023-05-01T04:03:05.563Z,0.0000
2023-05-01T04:04:05.744Z,0.0000
2023-05-01T04:05:07.980Z,0.0000
2023-05-01T04:06:10.021Z,0.0000
2023-05-01T04:07:11.918Z,0.0000
2023-05-01T04:08:13.923Z,0.0000
2023-05-01T04:09:16.054Z,0.0000
2023-05-01T04:10:18.143Z,0.0000
2023-05-01T04:11:20.287Z,0.0000
2023-05-01T04:12:22.217Z,0.0000
2023-05-01T04:13:24.178Z,0.0000
2023-05-01T04:14:26.302Z,0.0000
2023-05-01T04:15:28.382Z,0.0000
2023-05-01T04:16:30.606Z,0.0000
2023-05-01T04:17:32.895Z,5.6250
2023-05-01T04:18:35.077Z,5.6250
2023-05-01T04:19:37.008Z,5.6250
2023-05-01T04:20:39.004Z,5.6250
2023-05-01T04:21:41.065Z,5.6250
2023-05-01T04:22:43.012Z,9.0489
2023-05-01T04:23:45.074Z,11.2500
2023-05-01T04:24:46.980Z,11.2500
2023-05-01T04:25:49.121Z,11.2500
2023-05-01T04:26:51.122Z,11.2500
2023-05-01T04:27:53.025Z,11.2500
2023-05-01T04:28:54.992Z,11.2500
2023-05-01T04:29:57.564Z,11.2500
2023-05-01T04:30:58.023Z,11.2500
2023-05-01T04:32:00.260Z,11.2500
2023-05-01T04:33:02.528Z,11.2500
2023-05-01T04:34:04.518Z,11.2500
2023-05-01T04:35:06.506Z,11.2500
2023-05-01T04:36:08.576Z,16.3859
2023-05-01T04:37:10.759Z,16.8750
2023-05-01T04:38:12.796Z,16.8750
2023-05-01T04:39:15.004Z,17.3641
2023-05-01T04:40:17.087Z,22.5000
2023-05-01T04:41:19.368Z,22.5000
2023-05-01T04:42:21.497Z,22.5000
2023-05-01T04:43:23.769Z,22.5000
2023-05-01T04:44:25.870Z,24.4565
2023-05-01T04:45:27.764Z,28.1250
2023-05-01T04:46:30.133Z,28.1250
2023-05-01T04:47:32.445Z,28.1250
2023-05-01T04:48:34.496Z,30.0815
2023-05-01T04:49:36.422Z,33.7500
2023-05-01T04:50:38.719Z,33.7500
2023-05-01T04:51:41.105Z,33.7500
2023-05-01T04:52:43.425Z,33.7500
2023-05-01T04:53:45.445Z,33.7500
2023-05-01T04:54:47.762Z,37.1739
2023-05-01T04:55:49.943Z,39.3750
2023-05-01T04:56:52.255Z,39.3750
2023-05-01T04:57:54.517Z,40.5978
2023-05-01T04:58:56.712Z,45.0000
2023-05-01T04:59:58.932Z,47.4457
2023-05-01T05:00:58.958Z,46.2784
2023-05-01T05:02:01.236Z,46.2228
2023-05-01T05:03:03.883Z,50.6250
2023-05-01T05:04:03.899Z,50.6250
2023-05-01T05:05:03.815Z,55.2273
2023-05-01T05:06:05.967Z,56.2500
2023-05-01T05:07:08.283Z,56.2500
2023-05-01T05:08:10.729Z,56.2500
2023-05-01T05:09:13.171Z,56.2500
2023-05-01T05:10:15.438Z,63.3424
2023-05-01T05:11:17.800Z,70.6793
2023-05-01T05:12:19.977Z,73.1250
2023-05-01T05:13:22.238Z,73.1250
2023-05-01T05:14:24.401Z,74.8370
2023-05-01T05:15:26.562Z,78.7500
2023-05-01T05:16:28.893Z,80.4620
2023-05-01T05:17:31.134Z,84.3750
2023-05-01T05:18:33.449Z,84.3750
2023-05-01T05:19:35.690Z,84.3750
2023-05-01T05:20:37.834Z,88.2880
2023-05-01T05:21:40.024Z,93.4239
2023-05-01T05:22:42.114Z,95.6250
2023-05-01T05:23:44.218Z,94.4022
2023-05-01T05:24:46.396Z,90.4891
2023-05-01T05:25:48.528Z,100.5163
2023-05-01T05:26:50.740Z,116.6576
2023-05-01T05:27:52.964Z,128.1522
2023-05-01T05:28:55.126Z,135.0000
2023-05-01T05:29:55.863Z,135.0000
2023-05-01T05:30:55.894Z,137.3011
2023-05-01T05:31:58.100Z,135.0000
2023-05-01T05:33:00.356Z,136.4674
2023-05-01T05:34:02.433Z,140.6250
2023-05-01T05:35:04.494Z,135.9783
2023-05-01T05:36:06.530Z,122.0380
2023-05-01T05:37:08.468Z,110.2989
2023-05-01T05:38:10.741Z,102.7174
2023-05-01T05:39:12.980Z,101.2500
2023-05-01T05:40:14.969Z,101.2500
2023-05-01T05:41:17.020Z,104.1848
2023-05-01T05:42:19.233Z,99.0489
2023-05-01T05:43:21.259Z,91.7120
2023-05-01T05:44:23.408Z,86.0870
2023-05-01T05:45:25.520Z,91.4674
2023-05-01T05:46:27.577Z,94.8913
2023-05-01T05:47:29.691Z,86.5761
2023-05-01T05:48:31.694Z,78.9946
2023-05-01T05:49:33.947Z,75.5707
2023-05-01T05:50:35.985Z,73.1250
2023-05-01T05:51:38.120Z,73.1250
2023-05-01T05:52:40.083Z,78.5054
2023-05-01T05:53:42.071Z,78.9946
2023-05-01T05:54:44.020Z,83.6413
2023-05-01T05:55:46.007Z,80.9511
2023-05-01T05:56:47.977Z,81.4402
2023-05-01T05:57:49.956Z,96.6033
2023-05-01T05:58:51.862Z,99.5380
2023-05-01T05:59:54.092Z,90.0000
2023-05-01T06:00:56.340Z,78.7500
2023-05-01T06:01:58.308Z,87.3098
2023-05-01T06:03:00.406Z,91.7120
2023-05-01T06:04:02.732Z,86.8207
2023-05-01T06:05:04.779Z,91.4674
2023-05-01T06:06:07.364Z,90.0000
2023-05-01T06:07:07.034Z,85.9091
2023-05-01T06:08:09.009Z,85.3533
2023-05-01T06:09:11.076Z,90.0000
2023-05-01T06:10:13.062Z,87.3098
2023-05-01T06:11:13.575Z,84.3750
2023-05-01T06:12:15.651Z,88.7772
2023-05-01T06:13:16.209Z,100.9943
2023-05-01T06:14:18.154Z,115.4348
2023-05-01T06:15:18.566Z,125.2841
2023-05-01T06:16:20.679Z,134.7554
2023-05-01T06:17:22.757Z,142.8261
2023-05-01T06:18:24.815Z,144.7826
2023-05-01T06:19:26.789Z,148.2065
2023-05-01T06:20:28.803Z,153.8315
2023-05-01T06:21:30.757Z,166.5489
2023-05-01T06:22:32.729Z,174.1304
2023-05-01T06:23:34.796Z,196.6304
2023-05-01T06:24:36.837Z,227.4456
2023-05-01T06:25:38.712Z,243.8315
2023-05-01T06:26:40.703Z,249.4565
2023-05-01T06:27:42.693Z,261.6848
2023-05-01T06:28:44.702Z,251.4130
2023-05-01T06:29:46.618Z,262.6631
2023-05-01T06:30:48.576Z,265.3533
2023-05-01T06:31:50.586Z,261.9294
2023-05-01T06:32:52.818Z,258.7500
2023-05-01T06:33:52.996Z,258.7500
2023-05-01T06:34:55.015Z,264.3750
2023-05-01T06:35:56.929Z,261.1956
2023-05-01T06:36:58.844Z,258.7500
2023-05-01T06:38:00.723Z,261.1956
2023-05-01T06:39:02.603Z,264.3750
2023-05-01T06:40:04.605Z,265.3533
2023-05-01T06:41:06.536Z,270.4891
2023-05-01T06:42:08.466Z,276.3587
2023-05-01T06:43:10.444Z,282.9619
2023-05-01T06:44:12.417Z,290.0544
2023-05-01T06:45:14.370Z,297.8804
2023-05-01T06:46:16.322Z,303.5054
2023-05-01T06:47:18.195Z,310.8424
2023-05-01T06:48:20.186Z,316.7119
2023-05-01T06:49:22.120Z,323.5598
2023-05-01T06:50:24.042Z,327.7174
2023-05-01T06:51:25.959Z,332.1196
2023-05-01T06:52:27.844Z,337.5000
2023-05-01T06:53:30.015Z,343.1250
2023-05-01T06:54:32.009Z,351.6848
2023-05-01T06:55:35.865Z,357.7989
2023-05-01T06:56:35.524Z,368.4375
2023-05-01T06:57:37.597Z,378.3424
2023-05-01T06:58:39.504Z,387.6359
2023-05-01T06:59:41.415Z,395.7065
2023-05-01T07:00:43.309Z,402.3098
2023-05-01T07:01:45.263Z,407.6902
2023-05-01T07:02:47.281Z,412.3369
2023-05-01T07:03:49.438Z,411.1141
2023-05-01T07:04:51.437Z,410.6250
2023-05-01T07:05:53.417Z,405.2446
2023-05-01T07:06:55.363Z,400.3533
2023-05-01T07:08:01.550Z,394.2391
2023-05-01T07:08:58.844Z,388.1250
2023-05-01T07:10:00.816Z,388.1250
2023-05-01T07:11:02.827Z,388.1250
2023-05-01T07:12:04.683Z,393.2609
2023-05-01T07:13:06.750Z,398.8859
2023-05-01T07:14:08.619Z,405.2446
2023-05-01T07:15:10.630Z,412.3369
2023-05-01T07:16:12.628Z,418.9402
2023-05-01T07:17:14.623Z,422.8533
2023-05-01T07:18:16.435Z,421.8750
2023-05-01T07:19:18.357Z,421.8750
2023-05-01T07:20:20.326Z,428.2337
2023-05-01T07:21:22.588Z,448.2881
2023-05-01T07:22:24.761Z,467.1196
2023-05-01T07:23:26.696Z,472.5000
2023-05-01T07:24:28.606Z,466.8750
2023-05-01T07:25:30.465Z,461.9837
2023-05-01T07:26:32.549Z,450.4891
2023-05-01T07:27:34.408Z,466.1413
2023-05-01T07:28:36.245Z,491.0869
2023-05-01T07:29:38.098Z,506.7391
2023-05-01T07:30:40.198Z,493.2881
2023-05-01T07:31:42.190Z,489.8641
2023-05-01T07:32:44.170Z,506.2500
2023-05-01T07:33:46.253Z,498.1794
2023-05-01T07:34:48.109Z,479.3478
2023-05-01T07:35:50.009Z,469.5652
2023-05-01T07:36:51.937Z,467.3641
2023-05-01T07:37:53.733Z,448.7772
2023-05-01T07:38:55.553Z,433.1250
2023-05-01T07:39:57.578Z,414.2935
2023-05-01T07:40:57.648Z,390.9375
2023-05-01T07:41:59.514Z,361.2228
2023-05-01T07:43:01.373Z,332.1196
2023-05-01T07:44:03.235Z,317.4456
2023-05-01T07:45:05.144Z,299.1033
2023-05-01T07:46:07.087Z,318.9131
2023-05-01T07:47:09.519Z,357.3098
2023-05-01T07:48:11.499Z,355.5978
2023-05-01T07:49:13.426Z,347.7717
2023-05-01T07:50:15.311Z,354.3750
2023-05-01T07:51:17.138Z,342.6359
2023-05-01T07:52:18.999Z,329.1848
2023-05-01T07:53:20.884Z,320.1359
2023-05-01T07:54:22.762Z,296.6576
2023-05-01T07:55:24.653Z,309.8641
2023-05-01T07:56:26.501Z,291.7663
2023-05-01T07:57:28.478Z,256.7935
2023-05-01T07:58:30.361Z,278.5598
2023-05-01T07:59:32.267Z,301.0598
2023-05-01T08:00:34.185Z,313.5326
2023-05-01T08:01:36.051Z,291.2772
2023-05-01T08:02:38.028Z,276.1141
2023-05-01T08:03:40.123Z,303.9946
2023-05-01T08:04:42.098Z,296.4131
2023-05-01T08:05:43.944Z,282.9619
2023-05-01T08:06:45.934Z,271.9565
2023-05-01T08:07:47.936Z,280.2717
2023-05-01T08:08:49.839Z,290.2989
2023-05-01T08:09:51.698Z,326.2500
2023-05-01T08:10:53.614Z,347.2826
2023-05-01T08:11:55.475Z,333.3424
2023-05-01T08:12:57.315Z,330.8967
2023-05-01T08:13:59.165Z,390.0815
2023-05-01T08:15:01.035Z,405.0000
2023-05-01T08:16:02.975Z,418.2065
2023-05-01T08:17:04.913Z,431.6576
2023-05-01T08:18:06.819Z,438.7500
2023-05-01T08:19:08.900Z,435.5706
2023-05-01T08:20:10.696Z,448.5326
2023-05-01T08:21:12.587Z,499.8913
2023-05-01T08:22:14.387Z,529.2391
2023-05-01T08:23:16.259Z,544.4022
2023-05-01T08:24:18.021Z,538.5326
2023-05-01T08:25:19.851Z,527.7717
2023-05-01T08:26:22.704Z,554.9185
2023-05-01T08:27:22.245Z,558.6648
2023-05-01T08:28:24.169Z,590.3804
2023-05-01T08:29:26.058Z,567.6359
2023-05-01T08:30:27.896Z,564.7011
2023-05-01T08:31:29.838Z,625.3533
2023-05-01T08:32:31.914Z,648.0978
2023-05-01T08:33:33.871Z,658.1250
2023-05-01T08:34:35.701Z,662.7717
2023-05-01T08:35:37.574Z,671.3315
2023-05-01T08:36:39.483Z,673.7772
2023-05-01T08:37:41.563Z,673.5326
2023-05-01T08:38:43.459Z,674.2663
2023-05-01T08:39:45.308Z,652.5000
2023-05-01T08:40:47.244Z,648.3424
2023-05-01T08:41:49.169Z,648.0978
2023-05-01T08:42:50.983Z,646.6304
2023-05-01T08:43:51.294Z,624.8864
2023-05-01T08:44:53.198Z,605.2989
2023-05-01T08:45:55.090Z,603.5870
2023-05-01T08:46:57.129Z,591.3587
2023-05-01T08:47:59.216Z,576.4402
2023-05-01T08:49:01.240Z,562.9891
2023-05-01T08:50:03.189Z,548.5598
2023-05-01T08:51:05.117Z,532.4185
2023-05-01T08:52:07.061Z,521.4130
2023-05-01T08:53:08.958Z,512.6087
2023-05-01T08:54:10.801Z,506.2500
2023-05-01T08:55:12.720Z,501.8478
2023-05-01T08:56:14.708Z,495.4891
2023-05-01T08:57:16.587Z,489.3750
2023-05-01T08:58:18.461Z,487.6631
2023-05-01T08:59:20.448Z,483.9946
2023-05-01T09:00:22.458Z,484.2391
2023-05-01T09:01:24.453Z,491.5761
2023-05-01T09:02:26.400Z,491.8206
2023-05-01T09:03:28.435Z,496.9565
2023-05-01T09:04:28.230Z,505.2273
2023-05-01T09:05:30.269Z,515.7880
2023-05-01T09:06:32.454Z,530.4620
2023-05-01T09:07:34.497Z,548.3152
2023-05-01T09:08:36.505Z,567.3913
2023-05-01T09:09:38.410Z,589.4022
2023-05-01T09:10:40.281Z,610.9239
2023-05-01T09:11:42.248Z,624.1304
2023-05-01T09:12:44.097Z,633.9130
2023-05-01T09:13:46.092Z,643.4511
2023-05-01T09:14:48.099Z,654.4565
2023-05-01T09:15:49.957Z,661.7935
2023-05-01T09:16:51.909Z,670.1087
2023-05-01T09:17:53.874Z,679.8913
2023-05-01T09:18:55.853Z,691.6304
2023-05-01T09:19:58.127Z,702.8804
2023-05-01T09:20:58.178Z,720.5114
2023-05-01T09:22:00.113Z,736.1413
2023-05-01T09:23:01.987Z,748.8587
2023-05-01T09:24:03.874Z,757.6630
2023-05-01T09:25:06.737Z,771.3587
2023-05-01T09:26:06.003Z,793.3807
2023-05-01T09:27:07.910Z,809.2663
2023-05-01T09:28:09.787Z,823.9402
2023-05-01T09:29:11.656Z,839.8370
2023-05-01T09:30:13.486Z,859.1576
2023-05-01T09:31:15.409Z,878.4783
2023-05-01T09:32:17.637Z,900.4891
2023-05-01T09:33:19.858Z,924.2120
2023-05-01T09:34:21.919Z,948.1793
2023-05-01T09:35:23.827Z,964.3207
2023-05-01T09:36:25.673Z,972.1467
2023-05-01T09:37:27.633Z,974.3478
2023-05-01T09:38:29.535Z,966.5217
2023-05-01T09:39:31.586Z,946.9565
2023-05-01T09:40:33.522Z,920.7880
2023-05-01T09:41:35.530Z,890.4620
2023-05-01T09:42:37.450Z,886.5489
2023-05-01T09:43:39.394Z,894.8641
2023-05-01T09:44:41.325Z,906.8478
2023-05-01T09:45:43.265Z,938.3967
2023-05-01T09:46:45.194Z,965.7880
2023-05-01T09:47:47.286Z,976.5489
2023-05-01T09:48:49.440Z,983.1522
2023-05-01T09:49:51.595Z,999.5380
2023-05-01T09:50:53.741Z,1017.6359
2023-05-01T09:51:55.873Z,1045.2717
2023-05-01T09:52:58.040Z,1087.3369
2023-05-01T09:54:00.250Z,1146.2772
2023-05-01T09:55:02.415Z,1201.7935
2023-05-01T09:56:04.589Z,1205.9510
2023-05-01T09:57:06.774Z,1172.2010
2023-05-01T09:58:08.822Z,1230.4076
2023-05-01T09:59:10.893Z,1291.5490
2023-05-01T10:00:12.811Z,1296.6848
2023-05-01T10:01:14.786Z,1327.0109
2023-05-01T10:02:17.108Z,1343.6414
2023-05-01T10:03:19.248Z,1342.4185
2023-05-01T10:04:21.380Z,1333.1250
2023-05-01T10:05:23.378Z,1321.1414
2023-05-01T10:06:25.559Z,1292.0381
2023-05-01T10:07:27.667Z,1248.5055
2023-05-01T10:08:29.841Z,1168.2881
2023-05-01T10:09:31.836Z,1072.4185
2023-05-01T10:10:33.816Z,984.3750
2023-05-01T10:11:35.743Z,930.0815
2023-05-01T10:12:37.706Z,951.1141
2023-05-01T10:13:39.715Z,1013.2337
2023-05-01T10:14:41.674Z,1063.3695
2023-05-01T10:15:43.547Z,1100.7881
2023-05-01T10:16:45.571Z,1142.6086
2023-05-01T10:17:47.548Z,1097.8533
2023-05-01T10:18:49.582Z,1144.8098
2023-05-01T10:19:51.675Z,1211.3315
2023-05-01T10:20:53.589Z,1206.4402
2023-05-01T10:21:55.594Z,1175.1359
2023-05-01T10:22:56.103Z,1119.3750
2023-05-01T10:23:58.120Z,1139.9185
2023-05-01T10:25:00.002Z,1225.7609
2023-05-01T10:26:03.025Z,1233.0978
2023-05-01T10:27:02.206Z,1217.9464
2023-05-01T10:28:04.113Z,1204.4836
2023-05-01T10:29:05.972Z,1182.9619
2023-05-01T10:30:07.953Z,1163.6414
2023-05-01T10:31:09.863Z,1169.5109
2023-05-01T10:32:11.919Z,1192.7445
2023-05-01T10:33:13.881Z,1223.8043
2023-05-01T10:34:15.987Z,1264.4022
2023-05-01T10:35:17.854Z,1308.1793
2023-05-01T10:36:19.667Z,1344.8641
2023-05-01T10:37:21.507Z,1381.0598
2023-05-01T10:38:23.321Z,1409.6740
2023-05-01T10:39:25.108Z,1425.5707
2023-05-01T10:40:26.975Z,1429.7283
2023-05-01T10:41:28.754Z,1430.4619
2023-05-01T10:42:30.592Z,1430.7065
2023-05-01T10:43:32.456Z,1423.3695
2023-05-01T10:44:34.187Z,1409.4293
2023-05-01T10:45:36.030Z,1391.0869
2023-05-01T10:46:37.800Z,1372.7445
2023-05-01T10:47:39.933Z,1338.5055
2023-05-01T10:48:41.619Z,1293.2609
2023-05-01T10:49:43.429Z,1250.9510
2023-05-01T10:50:45.186Z,1207.4185
2023-05-01T10:51:46.899Z,1148.9674
2023-05-01T10:52:48.745Z,1096.3859
2023-05-01T10:53:50.484Z,1068.7500
2023-05-01T10:54:52.202Z,1079.0217
2023-05-01T10:55:53.949Z,1134.7826
2023-05-01T10:56:55.997Z,1204.7283
2023-05-01T10:57:57.993Z,1172.2010
2023-05-01T10:58:59.753Z,1132.3369
2023-05-01T11:00:01.435Z,1086.1141
2023-05-01T11:01:03.169Z,1059.2119
2023-05-01T11:02:04.947Z,1056.0326
2023-05-01T11:03:07.850Z,1082.6902
2023-05-01T11:04:07.049Z,1017.6136
2023-05-01T11:05:08.814Z,929.1033
2023-05-01T11:06:10.674Z,880.9239
2023-05-01T11:07:12.758Z,814.1576
2023-05-01T11:08:14.636Z,817.0924
2023-05-01T11:09:16.452Z,776.7391
2023-05-01T11:10:18.171Z,744.2120
2023-05-01T11:11:20.002Z,791.6576
2023-05-01T11:12:21.816Z,764.5109
2023-05-01T11:13:23.645Z,742.0109
2023-05-01T11:14:25.394Z,714.3750
2023-05-01T11:15:27.187Z,716.3315
2023-05-01T11:16:29.026Z,722.6902
2023-05-01T11:17:33.270Z,739.1250
2023-05-01T11:18:34.482Z,738.0000
2023-05-01T11:19:36.583Z,693.5870
2023-05-01T11:20:38.603Z,681.6033
2023-05-01T11:21:40.672Z,708.9946
2023-05-01T11:22:42.617Z,735.1630
2023-05-01T11:23:44.490Z,742.9891
2023-05-01T11:24:46.373Z,726.3587
2023-05-01T11:25:48.336Z,712.6630
2023-05-01T11:26:50.349Z,708.5054
2023-05-01T11:27:52.680Z,708.5054
2023-05-01T11:28:54.998Z,708.0163
2023-05-01T11:29:57.309Z,716.3315
2023-05-01T11:30:59.602Z,714.1304
2023-05-01T11:32:01.926Z,696.2772
2023-05-01T11:33:04.199Z,667.1739
2023-05-01T11:34:06.570Z,646.1413
2023-05-01T11:35:08.793Z,644.6739
2023-05-01T11:36:11.205Z,674.0217
2023-05-01T11:37:13.560Z,722.6902
2023-05-01T11:38:15.749Z,775.5163
2023-05-01T11:39:17.950Z,816.3587
2023-05-01T11:40:20.033Z,837.8804
2023-05-01T11:41:22.233Z,835.4348
2023-05-01T11:42:24.479Z,840.0815
2023-05-01T11:43:26.482Z,855.0000
2023-05-01T11:44:28.569Z,869.9185
2023-05-01T11:45:30.838Z,886.3043
2023-05-01T11:46:33.163Z,914.9185
2023-05-01T11:47:35.638Z,945.2446
2023-05-01T11:48:37.783Z,979.2391
2023-05-01T11:49:40.043Z,1012.2554
2023-05-01T11:50:42.369Z,1027.4185
2023-05-01T11:51:44.563Z,1033.0435
2023-05-01T11:52:46.729Z,1035.2445
2023-05-01T11:53:48.883Z,1016.4130
2023-05-01T11:54:51.000Z,991.2228
2023-05-01T11:55:53.116Z,1026.1957
2023-05-01T11:56:55.194Z,1037.9348
2023-05-01T11:57:57.478Z,1021.5489
2023-05-01T11:58:59.678Z,987.3098
2023-05-01T12:00:02.018Z,1030.1086
2023-05-01T12:01:04.139Z,1063.8586
2023-05-01T12:02:06.132Z,1077.7990
2023-05-01T12:03:08.605Z,1131.1141
2023-05-01T12:04:09.121Z,1189.6875
2023-05-01T12:05:11.409Z,1232.3641
2023-05-01T12:06:13.558Z,1264.4022
2023-05-01T12:07:15.760Z,1286.1685
2023-05-01T12:08:17.878Z,1306.2228
2023-05-01T12:09:19.970Z,1312.3369
2023-05-01T12:10:20.424Z,1322.1307
2023-05-01T12:11:22.504Z,1322.8533
2023-05-01T12:12:24.664Z,1286.9022
2023-05-01T12:13:27.048Z,1254.3750
2023-05-01T12:14:29.303Z,1212.7990
2023-05-01T12:15:31.221Z,1163.8859
2023-05-01T12:16:33.231Z,1122.7990
2023-05-01T12:17:34.983Z,1095.6522
2023-05-01T12:18:36.809Z,1079.0217
2023-05-01T12:19:38.669Z,1075.5978
2023-05-01T12:20:40.581Z,1088.3152
2023-05-01T12:21:42.363Z,1121.8207
2023-05-01T12:22:44.275Z,1174.4022